Time;durP1;ratioP1;P1;durP2;ratioP2;P2;SDS_P1;SDS_P2;PMS_P1;PMS_P2;Temp;Humidity;BMP_temperature;BMP_pressure;BME280_temperature;BME280_humidity;BME280_pressure;Samples;Min_cycle;Max_cycle;Signal;HPM_P1;HPM_P2
2021/12/01 00:00:45;;;;;;;15.93;6.68;;;;;;;5.43;100.00;98665.97;5017001;28;20017;-84
2021/12/01 00:03:10;;;;;;;14.98;7.45;;;;;;;5.46;100.00;98655.25;5039877;28;20080;-83
2021/12/01 00:05:36;;;;;;;15.27;6.80;;;;;;;5.52;100.00;98648.03;5041436;28;20486;-84
2021/12/01 00:08:02;;;;;;;13.65;6.32;;;;;;;5.56;100.00;98639.06;5040040;28;20040;-84
2021/12/01 00:10:30;;;;;;;14.32;6.57;;;;;;;5.63;100.00;98634.41;5039793;28;20035;-85
2021/12/01 00:12:55;;;;;;;12.70;6.50;;;;;;;5.67;100.00;98630.75;5021308;28;20021;-84
2021/12/01 00:15:21;;;;;;;14.93;6.80;;;;;;;5.73;100.00;98619.03;5022390;28;20043;-84
2021/12/01 00:17:47;;;;;;;14.38;7.35;;;;;;;5.74;100.00;98621.66;5020966;28;20031;-85
2021/12/01 00:20:16;;;;;;;12.95;5.82;;;;;;;5.78;100.00;98603.84;5040074;28;20429;-84
2021/12/01 00:22:42;;;;;;;11.05;5.57;;;;;;;5.85;100.00;98607.97;5041583;28;20489;-85
2021/12/01 00:25:10;;;;;;;13.45;6.15;;;;;;;5.90;100.00;98595.41;5024451;28;20025;-84
2021/12/01 00:27:36;;;;;;;17.30;7.65;;;;;;;5.93;100.00;98594.44;5022708;28;20394;-84
2021/12/01 00:30:01;;;;;;;22.73;9.85;;;;;;;6.04;100.00;98583.44;5040341;28;20030;-84
2021/12/01 00:32:28;;;;;;;30.15;11.18;;;;;;;6.11;100.00;98577.00;5020831;28;20022;-83
2021/12/01 00:34:53;;;;;;;29.63;12.23;;;;;;;6.24;100.00;98572.06;5038485;28;20371;-84
2021/12/01 00:37:20;;;;;;;33.13;13.65;;;;;;;6.25;100.00;98567.66;5017832;28;20025;-83
2021/12/01 00:39:45;;;;;;;34.80;14.93;;;;;;;6.32;100.00;98563.81;5019175;28;20017;-84
2021/12/01 00:42:11;;;;;;;40.55;15.13;;;;;;;6.32;100.00;98552.34;5036573;28;20079;-85
2021/12/01 00:44:45;;;;;;;39.20;15.00;;;;;;;6.40;100.00;98549.38;5036837;28;20049;-84
2021/12/01 00:47:12;;;;;;;40.80;16.15;;;;;;;6.43;100.00;98538.66;5019253;28;20036;-84
2021/12/01 00:49:37;;;;;;;41.80;16.00;;;;;;;6.48;100.00;98542.84;5018674;28;20026;-85
2021/12/01 00:52:02;;;;;;;39.50;15.82;;;;;;;6.57;100.00;98535.44;5036826;28;20029;-84
2021/12/01 00:54:28;;;;;;;36.80;15.38;;;;;;;6.58;100.00;98530.06;5019021;28;20110;-84
2021/12/01 00:56:53;;;;;;;36.08;15.60;;;;;;;6.66;100.00;98523.56;5034234;28;20068;-83
2021/12/01 00:59:19;;;;;;;38.90;17.23;;;;;;;6.63;100.00;98523.69;5016389;28;20061;-84
2021/12/01 01:01:45;;;;;;;37.72;15.73;;;;;;;6.68;100.00;98511.09;5016925;28;20021;-83
2021/12/01 01:04:11;;;;;;;37.47;14.88;;;;;;;6.82;100.00;98508.75;5035200;28;20033;-85
2021/12/01 01:06:37;;;;;;;40.35;15.60;;;;;;;6.79;100.00;98500.91;5017338;28;20032;-85
2021/12/01 01:09:05;;;;;;;34.67;15.13;;;;;;;6.84;100.00;98500.69;5017538;28;20079;-84
2021/12/01 01:17:00;;;;;;;32.00;15.15;;;;;;;7.06;100.00;98469.72;5037877;28;20040;-85
2021/12/01 01:19:26;;;;;;;30.73;15.32;;;;;;;7.09;100.00;98474.84;5020248;28;20025;-84
2021/12/01 01:21:52;;;;;;;28.95;14.48;;;;;;;7.15;100.00;98467.50;5037016;28;20115;-84
2021/12/01 01:24:18;;;;;;;29.38;15.65;;;;;;;7.17;100.00;98454.16;5019184;28;20022;-85
2021/12/01 01:26:44;;;;;;;34.22;16.80;;;;;;;7.09;100.00;98466.91;5019003;28;20441;-85
2021/12/01 01:29:10;;;;;;;33.15;16.33;;;;;;;7.16;100.00;98463.06;5019299;28;20470;-85
2021/12/01 01:31:36;;;;;;;34.65;16.85;;;;;;;7.14;100.00;98449.84;5018400;28;20036;-84
2021/12/01 01:34:02;;;;;;;33.17;16.33;;;;;;;7.12;100.00;98443.75;5016902;28;20017;-84
2021/12/01 01:36:27;;;;;;;33.42;16.35;;;;;;;7.14;100.00;98427.75;5016232;28;20116;-84
2021/12/01 01:38:53;;;;;;;34.65;16.38;;;;;;;7.12;100.00;98434.91;5034219;28;20060;-84
2021/12/01 01:41:19;;;;;;;32.97;16.50;;;;;;;7.14;100.00;98433.03;5017635;28;20117;-84
2021/12/01 01:43:47;;;;;;;32.50;16.95;;;;;;;7.12;100.00;98419.00;5019253;28;20117;-83
2021/12/01 01:46:13;;;;;;;29.55;14.57;;;;;;;7.22;100.00;98420.28;5021435;28;20029;-84
2021/12/01 01:48:47;;;;;;;29.30;14.55;;;;;;;7.26;100.00;98413.94;5022097;28;20509;-83
2021/12/01 01:51:15;;;;;;;27.35;14.07;;;;;;;7.21;100.00;98396.47;5040140;28;20389;-84
2021/12/01 01:53:41;;;;;;;24.10;12.60;;;;;;;7.23;100.00;98406.09;5021616;28;20413;-85
2021/12/01 01:56:08;;;;;;;25.30;12.48;;;;;;;7.26;100.00;98395.34;5022884;28;20501;-84
2021/12/01 01:58:33;;;;;;;19.33;10.50;;;;;;;7.35;100.00;98396.69;5023479;28;20032;-84
2021/12/01 02:01:06;;;;;;;17.67;9.57;;;;;;;7.32;100.00;98372.09;5043745;28;20025;-85
2021/12/01 02:03:35;;;;;;;17.02;9.75;;;;;;;7.28;100.00;98370.50;5026180;28;20485;-84
2021/12/01 02:06:01;;;;;;;16.02;9.27;;;;;;;7.28;100.00;98359.88;5043920;28;20553;-86
2021/12/01 02:08:30;;;;;;;15.35;8.00;;;;;;;7.32;100.00;98361.47;5045921;28;20049;-85
2021/12/01 02:10:58;;;;;;;12.15;8.18;;;;;;;7.35;100.00;98356.84;5042892;28;20021;-85
2021/12/01 02:13:23;;;;;;;12.50;7.72;;;;;;;7.25;100.00;98359.09;5042988;28;20030;-86
2021/12/01 02:15:50;;;;;;;12.07;7.55;;;;;;;7.26;100.00;98352.00;5042647;28;20104;-85
2021/12/01 02:18:16;;;;;;;13.38;8.88;;;;;;;7.30;100.00;98332.31;5024759;28;20021;-85
2021/12/01 02:21:01;;;;;;;13.52;8.07;;;;;;;7.26;100.00;98344.03;5024302;28;20044;-85
2021/12/01 02:23:26;;;;;;;12.73;8.30;;;;;;;7.25;100.00;98332.53;5023910;28;20108;-85
2021/12/01 02:25:52;;;;;;;13.85;8.85;;;;;;;7.30;100.00;98324.34;5025038;28;20080;-86
2021/12/01 02:28:17;;;;;;;16.48;10.38;;;;;;;7.33;100.00;98320.69;5024295;28;20037;-85
2021/12/01 02:30:42;;;;;;;15.30;9.20;;;;;;;7.36;100.00;98294.88;5041390;28;20022;-85
2021/12/01 02:33:08;;;;;;;14.30;9.38;;;;;;;7.33;100.00;98310.06;5041715;28;20104;-86
2021/12/01 02:35:33;;;;;;;15.40;10.38;;;;;;;7.34;100.00;98306.50;5042041;28;20049;-86
2021/12/01 02:37:59;;;;;;;15.57;9.18;;;;;;;7.38;100.00;98292.13;5024325;28;20023;-84
2021/12/01 02:40:24;;;;;;;14.88;10.07;;;;;;;7.36;100.00;98278.94;5023571;28;20021;-84
2021/12/01 02:42:49;;;;;;;11.38;7.82;;;;;;;7.32;100.00;98287.13;5023372;28;20462;-85
2021/12/01 02:45:14;;;;;;;12.95;9.10;;;;;;;7.30;100.00;98279.22;5036462;28;20033;-85
2021/12/01 02:47:40;;;;;;;14.18;9.02;;;;;;;7.33;100.00;98268.47;5038413;28;20116;-85
2021/12/01 02:50:06;;;;;;;12.80;8.23;;;;;;;7.34;100.00;98279.94;5023796;28;20079;-84
2021/12/01 02:52:35;;;;;;;13.13;8.77;;;;;;;7.32;100.00;98265.88;5023667;28;20105;-85
2021/12/01 02:55:07;;;;;;;10.60;7.25;;;;;;;7.40;100.00;98263.69;5023959;28;20057;-86
2021/12/01 02:57:46;;;;;;;11.75;7.57;;;;;;;7.34;100.00;98251.59;5041437;28;20025;-85
2021/12/01 03:00:12;;;;;;;10.20;6.88;;;;;;;7.32;100.00;98256.09;5038858;28;20033;-86
2021/12/01 03:02:38;;;;;;;9.02;6.65;;;;;;;7.34;100.00;98245.44;5035766;28;20026;-85
2021/12/01 03:05:05;;;;;;;8.63;6.35;;;;;;;7.42;100.00;98232.59;5035596;28;20029;-84
2021/12/01 03:07:32;;;;;;;10.35;6.70;;;;;;;7.34;100.00;98226.84;5035237;28;20505;-83
2021/12/01 03:09:57;;;;;;;9.63;6.85;;;;;;;7.38;100.00;98208.03;5035517;28;20036;-84
2021/12/01 03:12:28;;;;;;;10.73;6.45;;;;;;;7.38;100.00;98217.78;5019794;28;20033;-85
2021/12/01 03:14:53;;;;;;;12.38;7.85;;;;;;;7.33;100.00;98204.75;5018105;28;20116;-85
2021/12/01 03:17:18;;;;;;;12.15;7.40;;;;;;;7.31;100.00;98205.75;5035913;28;20590;-84
2021/12/01 03:19:43;;;;;;;14.18;8.57;;;;;;;7.29;100.00;98210.28;5017637;28;20029;-85
2021/12/01 03:22:13;;;;;;;13.20;8.20;;;;;;;7.24;100.00;98208.69;5017585;28;20032;-84
2021/12/01 03:24:39;;;;;;;12.48;8.25;;;;;;;7.29;100.00;98192.56;5035625;28;20029;-84
2021/12/01 03:27:04;;;;;;;11.77;8.32;;;;;;;7.21;100.00;98206.22;5035614;28;20099;-84
2021/12/01 03:29:30;;;;;;;12.98;8.52;;;;;;;7.21;100.00;98187.63;5017845;28;20071;-84
2021/12/01 03:31:55;;;;;;;11.50;8.05;;;;;;;7.14;100.00;98183.56;5036070;28;20064;-83
2021/12/01 03:34:22;;;;;;;12.48;8.50;;;;;;;7.17;100.00;98180.75;5035616;28;20029;-84
2021/12/01 03:36:47;;;;;;;10.35;7.82;;;;;;;7.18;100.00;98171.00;5018346;28;20052;-84
2021/12/01 03:39:13;;;;;;;11.00;7.43;;;;;;;7.14;100.00;98184.41;5035570;28;20017;-84
2021/12/01 03:41:38;;;;;;;11.40;7.43;;;;;;;7.09;100.00;98164.34;5038966;28;20052;-86
2021/12/01 03:44:04;;;;;;;11.43;7.47;;;;;;;7.03;100.00;98166.41;5039837;28;20074;-84
2021/12/01 03:46:29;;;;;;;9.18;6.47;;;;;;;7.12;100.00;98169.50;5036030;28;20394;-83
2021/12/01 03:48:55;;;;;;;7.55;6.28;;;;;;;7.08;100.00;98167.94;5017219;28;20029;-84
2021/12/01 03:51:20;;;;;;;9.23;6.50;;;;;;;7.05;100.00;98153.03;5034926;28;20029;-85
2021/12/01 03:53:45;;;;;;;7.68;6.28;;;;;;;7.03;100.00;98131.91;5017206;28;20029;-85
2021/12/01 03:56:11;;;;;;;10.38;6.95;;;;;;;7.08;100.00;98141.41;5035205;28;20022;-84
2021/12/01 03:58:36;;;;;;;7.95;6.03;;;;;;;7.06;100.00;98135.31;5018231;28;20021;-84
2021/12/01 04:01:02;;;;;;;7.82;6.05;;;;;;;7.02;100.00;98140.78;5017352;28;20025;-84
2021/12/01 04:03:27;;;;;;;8.57;5.07;;;;;;;6.96;100.00;98121.66;5017274;28;20060;-84
2021/12/01 04:05:52;;;;;;;7.15;5.88;;;;;;;6.93;100.00;98118.22;5017489;28;20422;-83
2021/12/01 04:08:18;;;;;;;7.47;5.35;;;;;;;6.98;100.00;98115.34;5017377;28;20025;-84
2021/12/01 04:10:43;;;;;;;7.38;5.45;;;;;;;6.91;100.00;98106.81;5017126;28;20095;-85
2021/12/01 04:13:08;;;;;;;7.53;5.50;;;;;;;6.96;100.00;98101.28;5037131;28;20476;-86
2021/12/01 04:15:34;;;;;;;9.43;5.45;;;;;;;6.91;100.00;98103.31;5040848;28;20036;-85
2021/12/01 04:17:59;;;;;;;8.32;5.75;;;;;;;6.86;100.00;98108.84;5041334;28;20030;-85
2021/12/01 04:20:25;;;;;;;6.88;5.30;;;;;;;6.91;100.00;98092.69;5039621;28;20028;-84
2021/12/01 04:22:50;;;;;;;7.38;6.15;;;;;;;6.88;100.00;98087.56;5017954;28;20127;-84
2021/12/01 04:25:16;;;;;;;7.72;5.82;;;;;;;6.87;100.00;98075.22;5017302;28;20026;-84
2021/12/01 04:27:41;;;;;;;7.10;4.97;;;;;;;6.85;100.00;98079.75;5017936;28;20497;-83
2021/12/01 04:30:10;;;;;;;7.45;5.40;;;;;;;6.81;100.00;98087.84;5018341;28;20398;-83
2021/12/01 04:32:36;;;;;;;7.03;5.20;;;;;;;6.76;100.00;98073.97;5035818;28;20026;-85
2021/12/01 04:35:02;;;;;;;9.57;6.00;;;;;;;6.77;100.00;98062.44;5021028;28;20022;-86
2021/12/01 04:37:28;;;;;;;6.80;5.40;;;;;;;6.77;100.00;98072.19;5022781;28;20060;-86
2021/12/01 04:39:54;;;;;;;8.27;5.45;;;;;;;6.72;100.00;98064.47;5019980;28;20394;-83
2021/12/01 04:42:19;;;;;;;7.78;5.47;;;;;;;6.74;100.00;98064.38;5035657;28;20033;-84
2021/12/01 04:44:45;;;;;;;7.40;5.63;;;;;;;6.72;100.00;98068.91;5017888;28;20105;-84
2021/12/01 04:47:14;;;;;;;7.88;5.95;;;;;;;6.64;100.00;98053.38;5017385;28;20099;-84
2021/12/01 04:49:40;;;;;;;7.50;5.82;;;;;;;6.69;100.00;98049.56;5017923;28;20378;-85
2021/12/01 04:52:07;;;;;;;8.23;5.55;;;;;;;6.69;100.00;98040.72;5035913;28;20026;-83
2021/12/01 04:54:33;;;;;;;8.35;6.07;;;;;;;6.64;100.00;98037.44;5018333;28;20398;-83
2021/12/01 04:57:00;;;;;;;7.78;6.10;;;;;;;6.63;100.00;98030.41;5035729;28;20394;-85
2021/12/01 04:59:26;;;;;;;8.88;6.07;;;;;;;6.67;100.00;98042.59;5036288;28;20107;-85
2021/12/01 05:01:56;;;;;;;7.88;5.78;;;;;;;6.66;100.00;98019.66;5018320;28;20437;-84
2021/12/01 05:04:23;;;;;;;8.93;6.25;;;;;;;6.65;100.00;98031.22;5018161;28;20024;-83
2021/12/01 05:06:49;;;;;;;7.45;6.00;;;;;;;6.67;100.00;98005.47;5019299;28;20466;-85
2021/12/01 05:09:14;;;;;;;9.38;6.43;;;;;;;6.65;100.00;98008.19;5016912;28;20028;-83
2021/12/01 05:11:40;;;;;;;8.45;5.82;;;;;;;6.63;100.00;98010.06;5035610;28;20083;-84
2021/12/01 05:14:05;;;;;;;8.82;6.25;;;;;;;6.62;100.00;98004.84;5018488;28;20029;-83
2021/12/01 05:16:30;;;;;;;7.95;6.53;;;;;;;6.63;100.00;97993.28;5018983;28;20505;-84
2021/12/01 05:19:00;;;;;;;9.10;6.72;;;;;;;6.65;100.00;97991.44;5038014;28;20095;-84
2021/12/01 05:21:25;;;;;;;9.10;6.70;;;;;;;6.61;100.00;97969.50;5021248;28;20029;-84
2021/12/01 05:23:50;;;;;;;8.73;6.78;;;;;;;6.56;100.00;97987.44;5021664;28;20032;-84
2021/12/01 05:26:17;;;;;;;9.35;6.80;;;;;;;6.58;100.00;97981.13;5021518;28;20393;-84
2021/12/01 05:28:42;;;;;;;11.10;7.18;;;;;;;6.54;100.00;97982.25;5046490;28;20544;-87
2021/12/01 05:31:08;;;;;;;9.52;6.47;;;;;;;6.57;100.00;97970.63;5029540;28;20026;-84
2021/12/01 05:33:34;;;;;;;9.77;6.95;;;;;;;6.52;100.00;97976.13;5044403;28;20115;-83
2021/12/01 05:36:00;;;;;;;9.15;6.80;;;;;;;6.52;100.00;97970.00;5021198;28;20137;-84
2021/12/01 05:38:28;;;;;;;9.20;6.88;;;;;;;6.55;100.00;97970.69;5020873;28;20108;-85
2021/12/01 05:40:53;;;;;;;8.75;6.97;;;;;;;6.58;100.00;97948.44;5021722;28;20026;-84
2021/12/01 05:43:19;;;;;;;9.88;7.03;;;;;;;6.51;100.00;97934.66;5042596;28;20033;-84
2021/12/01 05:45:46;;;;;;;9.68;7.25;;;;;;;6.53;100.00;97939.88;5023836;28;20120;-84
2021/12/01 05:48:20;;;;;;;10.20;7.25;;;;;;;6.49;100.00;97936.53;5023826;28;20025;-85
2021/12/01 05:50:45;;;;;;;8.68;6.57;;;;;;;6.47;100.00;97901.28;5024080;28;20075;-84
2021/12/01 05:53:11;;;;;;;8.52;6.20;;;;;;;6.53;100.00;97916.88;5040810;28;20022;-85
2021/12/01 05:55:40;;;;;;;7.75;6.07;;;;;;;6.50;100.00;97917.03;5021557;28;20070;-83
2021/12/01 05:58:05;;;;;;;8.68;6.53;;;;;;;6.47;100.00;97914.53;5041335;28;20394;-82
2021/12/01 06:00:31;;;;;;;7.82;6.30;;;;;;;6.51;100.00;97915.25;5022315;28;20014;-84
2021/12/01 06:02:57;;;;;;;7.47;5.70;;;;;;;6.47;100.00;97903.94;5022350;28;20104;-86
2021/12/01 06:05:22;;;;;;;7.95;5.75;;;;;;;6.53;100.00;97893.00;5040122;28;20053;-84
2021/12/01 06:07:49;;;;;;;6.25;5.00;;;;;;;6.57;100.00;97897.22;5020619;28;20021;-82
2021/12/01 06:10:16;;;;;;;8.13;5.70;;;;;;;6.49;100.00;97886.16;5020548;28;20029;-84
2021/12/01 06:12:42;;;;;;;7.55;5.28;;;;;;;6.56;100.00;97879.59;5020238;28;20021;-84
2021/12/01 06:15:09;;;;;;;6.47;5.03;;;;;;;6.46;100.00;97870.41;5020113;28;20018;-86
2021/12/01 06:17:35;;;;;;;8.05;5.95;;;;;;;6.42;100.00;97863.53;5020307;28;20025;-88
2021/12/01 06:20:00;;;;;;;7.53;6.03;;;;;;;6.37;100.00;97846.09;5021614;28;20363;-86
2021/12/01 06:22:26;;;;;;;6.53;5.35;;;;;;;6.44;100.00;97851.91;5020579;28;20029;-86
2021/12/01 06:24:51;;;;;;;7.05;5.47;;;;;;;6.41;100.00;97845.94;5023492;28;20033;-84
2021/12/01 06:27:16;;;;;;;7.78;5.82;;;;;;;6.40;100.00;97839.78;5023590;28;20025;-85
2021/12/01 06:29:42;;;;;;;7.25;5.70;;;;;;;6.36;100.00;97838.22;5025132;28;20033;-85
2021/12/01 06:32:07;;;;;;;7.80;5.78;;;;;;;6.34;100.00;97814.44;5022552;28;20097;-86
2021/12/01 06:34:34;;;;;;;6.47;5.28;;;;;;;6.35;100.00;97805.56;5019294;28;20025;-86
2021/12/01 06:37:00;;;;;;;7.03;5.22;;;;;;;6.29;100.00;97794.44;5021962;28;20025;-85
2021/12/01 06:39:25;;;;;;;6.82;5.13;;;;;;;6.35;100.00;97796.75;5043520;28;20032;-86
2021/12/01 06:41:54;;;;;;;6.05;4.80;;;;;;;6.34;100.00;97787.94;5054464;28;20503;-85
2021/12/01 06:44:20;;;;;;;6.80;4.85;;;;;;;6.32;100.00;97788.94;5038164;28;20500;-87
2021/12/01 06:46:45;;;;;;;7.68;5.18;;;;;;;6.31;100.00;97766.91;5038968;28;20032;-85
2021/12/01 06:49:10;;;;;;;6.88;4.88;;;;;;;6.29;100.00;97755.50;5038911;28;20025;-85
2021/12/01 06:51:36;;;;;;;7.85;5.20;;;;;;;6.32;100.00;97773.91;5040948;28;20119;-84
2021/12/01 06:54:01;;;;;;;8.70;5.20;;;;;;;6.35;100.00;97770.25;5042736;28;20048;-82
2021/12/01 06:56:26;;;;;;;6.20;4.70;;;;;;;6.26;100.00;97774.25;5059736;28;20394;-83
2021/12/01 06:58:52;;;;;;;7.57;5.25;;;;;;;6.23;100.00;97753.22;5039380;28;20033;-82
2021/12/01 07:01:17;;;;;;;7.25;5.75;;;;;;;6.13;100.00;97760.78;5042272;28;20043;-84
2021/12/01 07:03:42;;;;;;;7.40;5.35;;;;;;;6.09;100.00;97754.78;5059493;28;20056;-83
2021/12/01 07:06:08;;;;;;;6.93;5.10;;;;;;;6.06;100.00;97746.09;5042103;28;20032;-84
2021/12/01 07:08:35;;;;;;;9.02;5.45;;;;;;;6.02;100.00;97740.13;5043846;28;20052;-84
2021/12/01 07:11:01;;;;;;;6.82;5.00;;;;;;;5.99;100.00;97735.84;5043968;28;20108;-84
2021/12/01 07:13:29;;;;;;;8.80;5.43;;;;;;;5.95;100.00;97722.84;5044723;28;20055;-86
2021/12/01 07:15:55;;;;;;;7.38;5.10;;;;;;;5.89;100.00;97735.47;5051858;28;20092;-86
2021/12/01 07:18:20;;;;;;;7.43;5.22;;;;;;;5.85;100.00;97727.78;5067034;28;20037;-85
2021/12/01 07:20:45;;;;;;;6.97;5.60;;;;;;;5.81;100.00;97727.06;5049960;28;20458;-85
2021/12/01 07:23:12;;;;;;;7.70;5.65;;;;;;;5.79;100.00;97726.28;5048764;28;20033;-84
2021/12/01 07:25:37;;;;;;;7.82;5.57;;;;;;;5.78;100.00;97720.13;5043054;28;20056;-85
2021/12/01 07:28:03;;;;;;;9.52;6.05;;;;;;;5.80;100.00;97741.22;5042142;28;20025;-85
2021/12/01 07:30:28;;;;;;;7.15;5.45;;;;;;;5.76;100.00;97710.56;5042374;28;20028;-85
2021/12/01 07:32:53;;;;;;;8.43;5.90;;;;;;;5.77;100.00;97713.09;5041062;28;20017;-85
2021/12/01 07:35:19;;;;;;;9.85;5.78;;;;;;;5.74;100.00;97713.28;5038465;28;20021;-84
2021/12/01 07:37:44;;;;;;;9.75;5.80;;;;;;;5.73;100.00;97731.88;5039479;28;20052;-84
2021/12/01 07:40:10;;;;;;;7.10;5.10;;;;;;;5.78;100.00;97700.72;5040351;28;20024;-84
2021/12/01 07:42:37;;;;;;;6.53;4.50;;;;;;;5.78;100.00;97685.72;5040196;28;20021;-84
2021/12/01 07:45:04;;;;;;;7.10;5.05;;;;;;;5.80;100.00;97693.56;5041713;28;20036;-85
2021/12/01 07:47:30;;;;;;;7.63;4.75;;;;;;;5.81;100.00;97674.97;5042857;28;20500;-85
2021/12/01 07:49:55;;;;;;;7.82;4.85;;;;;;;5.80;100.00;97682.97;5042628;28;20025;-85
2021/12/01 07:52:21;;;;;;;6.75;5.18;;;;;;;5.84;100.00;97673.94;5044005;28;20510;-83
2021/12/01 07:54:47;;;;;;;6.47;4.45;;;;;;;5.86;100.00;97672.06;5060628;28;20103;-84
2021/12/01 07:57:14;;;;;;;8.50;4.50;;;;;;;5.89;100.00;97661.31;5039987;28;20060;-83
2021/12/01 07:59:39;;;;;;;6.78;4.55;;;;;;;5.89;100.00;97661.31;5040137;28;20062;-86
2021/12/01 08:02:04;;;;;;;5.80;3.95;;;;;;;5.87;100.00;97662.34;5057595;28;20037;-85
2021/12/01 08:04:30;;;;;;;5.90;3.60;;;;;;;5.84;100.00;97662.50;5057603;28;20032;-84
2021/12/01 08:06:56;;;;;;;5.30;3.83;;;;;;;5.87;100.00;97652.59;5042057;28;20088;-85
2021/12/01 08:09:23;;;;;;;5.28;3.45;;;;;;;5.89;100.00;97645.41;5049434;28;20017;-85
2021/12/01 08:11:49;;;;;;;5.40;3.90;;;;;;;5.88;100.00;97643.69;5054780;28;20029;-85
2021/12/01 08:14:14;;;;;;;6.18;3.97;;;;;;;5.87;100.00;97639.34;5056046;28;20070;-85
2021/12/01 08:16:39;;;;;;;4.80;3.20;;;;;;;5.89;100.00;97639.25;5056574;28;20021;-85
2021/12/01 08:19:05;;;;;;;5.30;3.30;;;;;;;5.92;100.00;97634.66;5039089;28;20166;-85
2021/12/01 08:21:32;;;;;;;4.40;2.90;;;;;;;5.94;100.00;97631.91;5039244;28;20029;-84
2021/12/01 08:23:58;;;;;;;4.22;2.85;;;;;;;5.96;100.00;97619.44;5039688;28;20029;-86
2021/12/01 08:26:24;;;;;;;4.07;2.53;;;;;;;6.00;100.00;97641.34;5041416;28;20095;-85
2021/12/01 08:28:49;;;;;;;4.50;2.60;;;;;;;6.07;100.00;97618.91;5042674;28;20029;-85
2021/12/01 08:31:16;;;;;;;4.97;2.53;;;;;;;6.11;100.00;97601.03;5063669;28;20063;-85
2021/12/01 08:33:43;;;;;;;3.35;2.45;;;;;;;6.12;100.00;97602.75;5043868;28;20021;-85
2021/12/01 08:36:09;;;;;;;5.15;2.90;;;;;;;6.06;100.00;97605.69;5042547;28;20021;-85
2021/12/01 08:38:36;;;;;;;4.25;2.58;;;;;;;6.09;100.00;97587.88;5042214;28;20074;-85
2021/12/01 08:41:02;;;;;;;4.80;2.28;;;;;;;6.11;100.00;97591.28;5059072;28;20096;-85
2021/12/01 08:43:28;;;;;;;3.30;2.00;;;;;;;6.09;100.00;97587.88;5060244;28;20029;-85
2021/12/01 08:45:53;;;;;;;3.35;2.33;;;;;;;6.19;100.00;97592.66;5042183;28;20028;-85
2021/12/01 08:48:19;;;;;;;5.68;2.63;;;;;;;6.13;100.00;97577.97;5040037;28;20021;-85
2021/12/01 08:50:45;;;;;;;4.18;1.90;;;;;;;6.13;100.00;97557.59;5037034;28;20068;-83
2021/12/01 08:53:10;;;;;;;3.42;1.95;;;;;;;6.14;100.00;97569.06;5055291;28;20056;-85
2021/12/01 08:55:40;;;;;;;3.08;1.80;;;;;;;6.12;100.00;97563.00;5038517;28;20094;-85
2021/12/01 08:58:10;;;;;;;2.78;1.70;;;;;;;6.19;100.00;97574.09;5056973;28;20478;-85
2021/12/01 09:00:37;;;;;;;3.15;1.67;;;;;;;6.13;100.00;97562.91;5039707;28;20028;-85
2021/12/01 09:03:04;;;;;;;2.80;1.65;;;;;;;6.09;100.00;97556.09;5066317;28;20021;-86
2021/12/01 09:05:30;;;;;;;4.43;1.60;;;;;;;6.11;100.00;97548.91;5049570;28;20024;-85
2021/12/01 09:07:55;;;;;;;2.67;1.77;;;;;;;6.09;100.00;97534.03;5048120;28;20084;-86
2021/12/01 09:10:20;;;;;;;2.22;1.50;;;;;;;6.13;100.00;97509.91;5046096;28;20037;-86
2021/12/01 09:12:45;;;;;;;2.22;1.25;;;;;;;6.14;100.00;97526.69;5063439;28;20386;-85
2021/12/01 09:15:13;;;;;;;3.33;1.40;;;;;;;6.18;100.00;97527.38;5042598;28;20025;-84
2021/12/01 09:17:38;;;;;;;2.40;1.70;;;;;;;6.21;100.00;97530.69;5041202;28;20021;-85
2021/12/01 09:20:04;;;;;;;2.33;1.50;;;;;;;6.26;100.00;97507.44;5043514;28;20469;-82
2021/12/01 09:22:30;;;;;;;2.22;1.50;;;;;;;6.34;100.00;97500.84;5043541;28;20048;-83
2021/12/01 09:24:55;;;;;;;2.08;1.50;;;;;;;6.40;100.00;97499.63;5060907;28;20021;-84
2021/12/01 09:27:20;;;;;;;2.75;1.83;;;;;;;6.35;100.00;97497.25;5036898;28;20025;-84
2021/12/01 09:29:46;;;;;;;2.45;1.58;;;;;;;6.43;100.00;97491.50;5040998;28;20029;-83
2021/12/01 09:32:12;;;;;;;2.80;1.90;;;;;;;6.42;100.00;97500.38;5038048;28;20370;-84
2021/12/01 09:34:39;;;;;;;2.20;1.60;;;;;;;6.49;100.00;97522.97;5038182;28;20378;-84
2021/12/01 09:37:05;;;;;;;4.40;1.90;;;;;;;6.43;100.00;97491.50;5055098;28;20025;-85
2021/12/01 09:39:31;;;;;;;5.38;4.05;;;;;;;6.40;100.00;97492.53;5043779;28;20032;-84
2021/12/01 09:41:56;;;;;;;2.45;1.75;;;;;;;6.37;100.00;97505.97;5019539;28;20187;-84
2021/12/01 09:44:22;;;;;;;2.00;1.67;;;;;;;6.37;100.00;97485.63;5018790;28;20032;-84
2021/12/01 09:46:47;;;;;;;2.70;1.60;;;;;;;6.31;100.00;97472.72;5017562;28;20064;-85
2021/12/01 09:49:13;;;;;;;2.85;1.90;;;;;;;6.29;100.00;97471.94;5017163;28;20025;-83
2021/12/01 09:51:38;;;;;;;2.80;2.10;;;;;;;6.32;100.00;97477.06;5018013;28;20022;-84
2021/12/01 09:54:04;;;;;;;2.35;1.80;;;;;;;6.37;100.00;97474.16;5018130;28;20021;-85
2021/12/01 09:56:31;;;;;;;2.35;1.80;;;;;;;6.37;100.00;97458.25;5022421;28;20021;-87
2021/12/01 09:58:57;;;;;;;3.50;1.95;;;;;;;6.42;100.00;97460.63;5020192;28;20021;-85
2021/12/01 10:01:25;;;;;;;3.97;2.10;;;;;;;6.43;100.00;97457.03;5019557;28;20112;-84
2021/12/01 10:03:51;;;;;;;2.20;1.80;;;;;;;6.44;100.00;97449.00;5033085;28;20093;-83
2021/12/01 10:06:22;;;;;;;2.67;1.73;;;;;;;6.44;100.00;97433.09;5018302;28;20022;-84
2021/12/01 10:09:04;;;;;;;4.65;2.30;;;;;;;6.42;100.00;97444.72;5036782;28;20029;-84
2021/12/01 10:11:36;;;;;;;2.67;2.05;;;;;;;6.41;100.00;97448.34;5038049;28;20021;-84
2021/12/01 10:14:19;;;;;;;4.47;1.75;;;;;;;6.42;100.00;97428.81;5038606;28;20032;-84
2021/12/01 10:16:46;;;;;;;2.60;1.75;;;;;;;6.42;100.00;97427.03;5020524;28;20025;-84
2021/12/01 10:19:14;;;;;;;2.45;1.80;;;;;;;6.45;100.00;97420.69;5020926;28;20461;-85
2021/12/01 10:21:42;;;;;;;2.33;1.83;;;;;;;6.43;100.00;97410.19;5021604;28;20030;-84
2021/12/01 10:24:17;;;;;;;2.92;2.35;;;;;;;6.44;100.00;97389.84;5021382;28;20093;-85
2021/12/01 10:26:44;;;;;;;2.60;2.03;;;;;;;6.45;100.00;97402.13;5020719;28;20033;-83
2021/12/01 10:29:13;;;;;;;4.15;2.20;;;;;;;6.43;100.00;97388.97;5021412;28;20029;-83
2021/12/01 10:31:55;;;;;;;3.05;2.08;;;;;;;6.42;100.00;97394.34;5021621;28;20021;-84
2021/12/01 10:34:33;;;;;;;2.80;2.10;;;;;;;6.39;100.00;97389.28;5021650;28;20017;-84
2021/12/01 10:37:15;;;;;;;2.97;2.47;;;;;;;6.40;100.00;97383.00;5020154;28;20056;-83
2021/12/01 10:39:46;;;;;;;3.22;2.40;;;;;;;6.42;100.00;97383.75;5029884;28;20440;-86
2021/12/01 10:42:15;;;;;;;2.60;2.30;;;;;;;6.42;100.00;97391.72;5043122;28;20119;-85
2021/12/01 10:44:57;;;;;;;3.83;2.50;;;;;;;6.37;100.00;97386.69;5042290;28;20032;-85
2021/12/01 10:47:22;;;;;;;4.13;2.70;;;;;;;6.39;100.00;97376.00;5043427;28;20025;-86
2021/12/01 10:49:48;;;;;;;2.95;2.20;;;;;;;6.38;100.00;97364.56;5045265;28;20512;-85
2021/12/01 10:52:33;;;;;;;3.22;2.05;;;;;;;6.42;100.00;97367.84;5042863;28;20017;-85
2021/12/01 10:55:08;;;;;;;3.17;2.35;;;;;;;6.31;100.00;97358.78;5061454;28;20032;-84
2021/12/01 10:57:38;;;;;;;2.90;2.13;;;;;;;6.34;100.00;97341.84;5060642;28;20028;-85
2021/12/01 11:00:11;;;;;;;3.22;2.20;;;;;;;6.31;100.00;97349.97;5043011;28;20091;-84
2021/12/01 11:02:37;;;;;;;3.33;2.47;;;;;;;6.35;100.00;97352.34;5041556;28;20090;-84
2021/12/01 11:05:02;;;;;;;2.45;2.03;;;;;;;6.36;100.00;97350.53;5059298;28;20424;-84
2021/12/01 11:07:34;;;;;;;2.92;2.45;;;;;;;6.36;100.00;97345.25;5059335;28;20021;-84
2021/12/01 11:10:20;;;;;;;5.47;3.20;;;;;;;6.36;100.00;97346.09;5058959;28;20056;-85
2021/12/01 11:12:53;;;;;;;3.85;3.25;;;;;;;6.45;100.00;97336.72;5059128;28;20139;-85
2021/12/01 11:15:31;;;;;;;3.55;3.20;;;;;;;6.50;100.00;97339.09;5057944;28;20021;-85
2021/12/01 11:17:57;;;;;;;3.30;3.00;;;;;;;6.47;100.00;97333.97;5056440;28;20059;-85
2021/12/01 11:20:44;;;;;;;3.58;3.20;;;;;;;6.51;100.00;97335.50;5056056;28;20021;-85
2021/12/01 11:23:14;;;;;;;5.32;2.83;;;;;;;6.56;100.00;97324.63;5038745;28;20025;-84
2021/12/01 11:25:42;;;;;;;4.25;3.22;;;;;;;6.52;100.00;97323.13;5057709;28;20040;-84
2021/12/01 11:28:09;;;;;;;5.45;3.30;;;;;;;6.55;100.00;97307.00;5039439;28;20051;-85
2021/12/01 11:30:36;;;;;;;3.67;3.30;;;;;;;6.62;100.00;97312.78;5039210;28;20029;-84
2021/12/01 11:33:02;;;;;;;4.40;4.00;;;;;;;6.63;100.00;97327.72;5039869;28;20443;-84